Time;durP1;ratioP1;P1;durP2;ratioP2;P2;SDS_P1;SDS_P2;PMS_P1;PMS_P2;Temp;Humidity;BMP_temperature;BMP_pressure;BME280_temperature;BME280_humidity;BME280_pressure;Samples;Min_cycle;Max_cycle;Signal;HPM_P1;HPM_P2
2022/05/24 00:01:22;;;;;;;;;5.75;4.75;;;;;;;;5035458;28;8795;-79
2022/05/24 00:03:51;;;;;;;;;4.75;4.75;;;;;;;;5035328;28;8890;-78
2022/05/24 00:06:19;;;;;;;;;4.00;4.00;;;;;;;;5039202;28;8896;-78
2022/05/24 00:08:46;;;;;;;;;3.67;3.00;;;;;;;;5034511;28;8867;-79
2022/05/24 00:11:13;;;;;;;;;4.00;4.00;;;;;;;;5038103;28;8939;-79
2022/05/24 00:13:41;;;;;;;;;7.33;3.67;;;;;;;;5034214;28;9613;-78
2022/05/24 00:16:08;;;;;;;;;8.33;5.00;;;;;;;;5028135;28;8986;-80
2022/05/24 00:18:36;;;;;;;;;5.67;5.67;;;;;;;;5036429;28;8952;-79
2022/05/24 00:21:06;;;;;;;;;4.00;4.00;;;;;;;;5032512;28;9112;-78
2022/05/24 00:23:34;;;;;;;;;4.33;4.33;;;;;;;;5041293;28;9009;-78
2022/05/24 00:26:03;;;;;;;;;6.67;4.67;;;;;;;;5037495;28;9111;-77
2022/05/24 00:28:32;;;;;;;;;4.67;4.67;;;;;;;;5035440;28;9044;-78
2022/05/24 00:31:00;;;;;;;;;4.67;4.33;;;;;;;;5034468;28;9050;-80
2022/05/24 00:33:27;;;;;;;;;4.67;4.67;;;;;;;;5040410;28;9109;-78
2022/05/24 00:35:55;;;;;;;;;8.67;5.00;;;;;;;;5035034;28;8994;-79
2022/05/24 00:38:27;;;;;;;;;6.00;6.00;;;;;;;;5039886;28;9878;-79
2022/05/24 00:41:04;;;;;;;;;9.00;6.33;;;;;;;;5039642;28;9296;-79
2022/05/24 00:43:34;;;;;;;;;11.33;7.33;;;;;;;;5035840;28;9019;-79
2022/05/24 00:46:04;;;;;;;;;7.67;7.67;;;;;;;;5032563;28;9034;-79
2022/05/24 00:48:35;;;;;;;;;4.67;4.67;;;;;;;;5040417;28;9153;-80
2022/05/24 00:51:04;;;;;;;;;7.00;5.00;;;;;;;;5034698;28;9017;-80
2022/05/24 00:53:36;;;;;;;;;8.67;6.00;;;;;;;;5030548;28;9309;-80
2022/05/24 00:56:07;;;;;;;;;5.00;5.00;;;;;;;;5038616;28;9192;-79
2022/05/24 00:58:40;;;;;;;;;5.00;5.00;;;;;;;;5038330;28;9107;-79
2022/05/24 01:01:22;;;;;;;;;11.33;6.00;;;;;;;;5037736;28;9059;-77
2022/05/24 01:03:49;;;;;;;;;6.00;4.33;;;;;;;;5032566;28;9247;-79
2022/05/24 01:06:16;;;;;;;;;4.00;4.00;;;;;;;;5035426;28;9102;-79
2022/05/24 01:08:45;;;;;;;;;7.33;4.33;;;;;;;;5033891;28;9357;-79
2022/05/24 01:11:13;;;;;;;;;6.00;3.00;;;;;;;;5039681;28;9169;-79
2022/05/24 01:13:41;;;;;;;;;8.33;5.00;;;;;;;;5035272;28;9090;-78
2022/05/24 01:16:08;;;;;;;;;5.00;5.00;;;;;;;;5038886;28;9197;-79
2022/05/24 01:18:36;;;;;;;;;5.00;5.00;;;;;;;;5037719;28;9275;-78
2022/05/24 01:21:06;;;;;;;;;5.33;4.33;;;;;;;;5031291;28;9239;-79
2022/05/24 01:23:57;;;;;;;;;7.33;4.00;;;;;;;;5033232;28;9205;-80
2022/05/24 01:26:44;;;;;;;;;3.00;3.00;;;;;;;;5036179;28;9214;-79
2022/05/24 01:29:12;;;;;;;;;5.00;5.00;;;;;;;;5033493;28;9197;-79
2022/05/24 01:37:11;;;;;;;;;4.00;4.00;;;;;;;;5051058;28;10155;-80
2022/05/24 01:39:41;;;;;;;;;7.33;4.00;;;;;;;;5035354;28;9269;-79
2022/05/24 01:42:12;;;;;;;;;4.00;4.00;;;;;;;;5044829;28;9438;-80
2022/05/24 01:44:43;;;;;;;;;3.00;2.00;;;;;;;;5030607;28;9369;-79
2022/05/24 01:47:12;;;;;;;;;2.67;2.67;;;;;;;;5039983;28;9270;-78
2022/05/24 01:49:44;;;;;;;;;2.00;2.00;;;;;;;;5040808;28;9288;-77
2022/05/24 01:52:15;;;;;;;;;3.33;2.67;;;;;;;;5055421;28;9180;-79
2022/05/24 01:54:46;;;;;;;;;2.33;2.00;;;;;;;;5040611;28;9321;-79
2022/05/24 01:57:18;;;;;;;;;3.67;3.67;;;;;;;;5039390;28;9360;-79
2022/05/24 01:59:48;;;;;;;;;3.00;3.00;;;;;;;;5035522;28;9373;-80
2022/05/24 02:02:16;;;;;;;;;2.00;2.00;;;;;;;;5040333;28;9521;-79
2022/05/24 02:04:44;;;;;;;;;2.25;2.25;;;;;;;;5038114;28;9548;-80
2022/05/24 02:07:14;;;;;;;;;3.00;3.00;;;;;;;;5041043;28;9505;-77
2022/05/24 02:09:43;;;;;;;;;3.75;3.75;;;;;;;;5031539;28;9516;-77
2022/05/24 02:12:16;;;;;;;;;5.00;3.00;;;;;;;;5040763;28;9553;-76
2022/05/24 02:14:51;;;;;;;;;2.50;2.50;;;;;;;;5032380;28;9752;-78
2022/05/24 02:17:21;;;;;;;;;2.00;2.00;;;;;;;;5042115;28;9403;-78
2022/05/24 02:19:51;;;;;;;;;2.00;2.00;;;;;;;;5036503;28;9502;-77
2022/05/24 02:22:22;;;;;;;;;2.75;2.75;;;;;;;;5035396;28;9575;-78
2022/05/24 02:24:56;;;;;;;;;1.67;1.67;;;;;;;;5039525;28;9425;-77
2022/05/24 02:27:25;;;;;;;;;3.75;3.75;;;;;;;;5041058;28;9618;-76
2022/05/24 02:29:52;;;;;;;;;1.00;1.00;;;;;;;;5039192;28;9517;-77
2022/05/24 02:32:20;;;;;;;;;3.00;3.00;;;;;;;;5038823;28;9369;-76
2022/05/24 02:34:47;;;;;;;;;5.50;2.75;;;;;;;;5036064;28;9492;-78
2022/05/24 02:37:15;;;;;;;;;2.00;2.00;;;;;;;;5038596;28;9470;-75
2022/05/24 02:42:28;;;;;;;;;1.75;1.75;;;;;;;;5038161;28;10517;-76
2022/05/24 02:44:55;;;;;;;;;2.75;2.00;;;;;;;;5034875;28;10222;-76
2022/05/24 02:47:22;;;;;;;;;3.00;3.00;;;;;;;;5039339;28;9498;-78
2022/05/24 02:49:50;;;;;;;;;2.00;2.00;;;;;;;;5037690;28;9560;-78
2022/05/24 02:52:17;;;;;;;;;2.33;0.67;;;;;;;;5037832;28;9592;-76
2022/05/24 02:54:45;;;;;;;;;2.00;2.00;;;;;;;;5039148;28;9463;-77
2022/05/24 02:57:12;;;;;;;;;2.00;2.00;;;;;;;;5033428;28;9494;-76
2022/05/24 02:59:41;;;;;;;;;4.00;2.67;;;;;;;;5039105;28;9441;-78
2022/05/24 03:02:08;;;;;;;;;2.67;2.67;;;;;;;;5035287;28;10041;-78
2022/05/24 03:04:36;;;;;;;;;2.00;2.00;;;;;;;;5038308;28;9425;-78
2022/05/24 03:09:48;;;;;;;;;2.33;2.33;;;;;;;;5037907;28;9591;-75
2022/05/24 03:15:01;;;;;;;;;2.00;2.00;;;;;;;;5037815;28;10084;-77
2022/05/24 03:17:29;;;;;;;;;2.00;2.00;;;;;;;;5039211;28;9436;-78
2022/05/24 03:19:56;;;;;;;;;6.25;2.50;;;;;;;;5034862;28;9323;-81
2022/05/24 03:22:24;;;;;;;;;4.75;3.00;;;;;;;;5035857;28;9399;-79
2022/05/24 03:24:51;;;;;;;;;1.00;1.00;;;;;;;;5036133;28;9567;-80
2022/05/24 03:27:19;;;;;;;;;2.00;2.00;;;;;;;;5031397;28;9495;-80
2022/05/24 03:29:50;;;;;;;;;7.00;3.00;;;;;;;;5033985;28;9575;-80
2022/05/24 03:32:20;;;;;;;;;2.00;2.00;;;;;;;;5043904;28;9568;-77
2022/05/24 03:34:48;;;;;;;;;3.75;2.75;;;;;;;;5037882;28;9591;-82
2022/05/24 03:37:15;;;;;;;;;0.75;0.75;;;;;;;;5045815;28;10240;-78
2022/05/24 03:39:43;;;;;;;;;2.00;2.00;;;;;;;;5038518;28;9489;-79
2022/05/24 03:42:10;;;;;;;;;2.00;2.00;;;;;;;;5042121;28;9629;-81
2022/05/24 03:44:38;;;;;;;;;4.25;1.25;;;;;;;;5042510;28;9537;-81
2022/05/24 03:47:05;;;;;;;;;1.00;1.00;;;;;;;;5021915;28;9571;-79
2022/05/24 03:49:34;;;;;;;;;5.25;2.00;;;;;;;;5038933;28;9567;-82
2022/05/24 03:52:01;;;;;;;;;1.00;1.00;;;;;;;;5030272;28;9664;-80
2022/05/24 03:54:29;;;;;;;;;1.00;1.00;;;;;;;;5044960;28;9398;-80
2022/05/24 03:59:40;;;;;;;;;1.25;1.25;;;;;;;;5009525;28;9547;-77
2022/05/24 04:02:08;;;;;;;;;4.00;2.00;;;;;;;;5036056;28;9592;-79
2022/05/24 04:04:37;;;;;;;;;1.75;1.00;;;;;;;;5036088;28;9608;-78
2022/05/24 04:07:04;;;;;;;;;1.25;1.25;;;;;;;;5038923;28;10417;-78
2022/05/24 04:09:33;;;;;;;;;2.75;1.50;;;;;;;;5036876;28;9698;-78
2022/05/24 04:12:01;;;;;;;;;3.50;3.50;;;;;;;;5030742;28;9600;-82
2022/05/24 04:14:30;;;;;;;;;1.00;1.00;;;;;;;;5034941;28;9625;-78
2022/05/24 04:16:57;;;;;;;;;2.00;2.00;;;;;;;;5042084;28;9494;-82
2022/05/24 04:19:25;;;;;;;;;2.00;2.00;;;;;;;;5032872;28;9428;-81
2022/05/24 04:21:54;;;;;;;;;1.00;1.00;;;;;;;;5039702;28;9348;-82
2022/05/24 04:24:22;;;;;;;;;0.33;0.33;;;;;;;;5027910;28;9489;-81
2022/05/24 04:26:49;;;;;;;;;3.00;1.33;;;;;;;;5063468;28;9504;-79
2022/05/24 04:29:17;;;;;;;;;0.00;0.00;;;;;;;;5038443;28;9524;-84
2022/05/24 04:31:44;;;;;;;;;1.50;1.50;;;;;;;;5029592;28;9385;-81
2022/05/24 04:34:11;;;;;;;;;2.25;2.25;;;;;;;;5033634;28;9591;-79
2022/05/24 04:36:38;;;;;;;;;1.00;1.00;;;;;;;;5033303;28;9651;-77
2022/05/24 04:39:07;;;;;;;;;1.00;1.00;;;;;;;;5033102;28;9579;-80
2022/05/24 04:44:19;;;;;;;;;2.75;1.00;;;;;;;;5032585;28;10284;-81
2022/05/24 04:49:32;;;;;;;;;2.50;1.25;;;;;;;;5029077;28;9583;-81
2022/05/24 04:52:00;;;;;;;;;1.00;1.00;;;;;;;;5029238;28;9582;-78
2022/05/24 04:54:29;;;;;;;;;1.00;1.00;;;;;;;;5037387;28;9576;-79
2022/05/24 04:56:56;;;;;;;;;2.00;1.25;;;;;;;;5033942;28;9647;-78
2022/05/24 04:59:24;;;;;;;;;1.25;0.25;;;;;;;;5029227;28;9555;-80
2022/05/24 05:01:51;;;;;;;;;0.75;0.00;;;;;;;;5033959;28;9524;-82
2022/05/24 05:04:19;;;;;;;;;0.25;0.25;;;;;;;;5042629;28;9485;-80
2022/05/24 05:06:47;;;;;;;;;1.75;1.75;;;;;;;;5034098;28;9426;-78
2022/05/24 05:09:15;;;;;;;;;1.00;1.00;;;;;;;;5034443;28;9537;-80
2022/05/24 05:11:45;;;;;;;;;0.00;0.00;;;;;;;;5033289;28;10225;-79
2022/05/24 05:14:12;;;;;;;;;0.00;0.00;;;;;;;;5034255;28;9435;-80
2022/05/24 05:16:40;;;;;;;;;1.00;1.00;;;;;;;;5032066;28;9419;-84
2022/05/24 05:19:09;;;;;;;;;2.33;1.00;;;;;;;;5040937;28;9397;-85
2022/05/24 05:21:38;;;;;;;;;0.67;0.67;;;;;;;;5037323;28;9382;-75
2022/05/24 05:24:07;;;;;;;;;1.67;1.00;;;;;;;;5032977;28;9271;-77
2022/05/24 05:26:34;;;;;;;;;2.67;1.00;;;;;;;;5037388;28;10100;-77
2022/05/24 05:29:03;;;;;;;;;1.00;1.00;;;;;;;;5038290;28;9366;-78
2022/05/24 05:31:30;;;;;;;;;1.00;1.00;;;;;;;;5041704;28;9301;-77
2022/05/24 05:33:58;;;;;;;;;0.00;0.00;;;;;;;;5037526;28;9391;-78
2022/05/24 05:36:27;;;;;;;;;2.00;2.00;;;;;;;;5036568;28;9308;-77
2022/05/24 05:38:55;;;;;;;;;1.00;1.00;;;;;;;;5035347;28;9470;-77
2022/05/24 05:41:24;;;;;;;;;4.00;2.50;;;;;;;;5038969;28;9396;-78
2022/05/24 05:43:51;;;;;;;;;2.00;2.00;;;;;;;;5037996;28;9416;-77
2022/05/24 05:46:20;;;;;;;;;2.00;1.00;;;;;;;;5033764;28;9439;-77
2022/05/24 05:48:48;;;;;;;;;1.00;1.00;;;;;;;;5036354;28;9352;-77
2022/05/24 05:51:17;;;;;;;;;0.00;0.00;;;;;;;;5038774;28;9490;-77
2022/05/24 05:53:44;;;;;;;;;1.00;1.00;;;;;;;;5040676;28;9289;-78
2022/05/24 05:56:16;;;;;;;;;3.00;1.67;;;;;;;;5033806;28;10201;-79
2022/05/24 05:58:43;;;;;;;;;0.00;0.00;;;;;;;;5037905;28;9417;-78
2022/05/24 06:01:15;;;;;;;;;3.00;1.67;;;;;;;;5036312;28;9251;-75
2022/05/24 06:03:44;;;;;;;;;2.00;2.00;;;;;;;;5037090;28;9198;-78
2022/05/24 06:06:16;;;;;;;;;1.67;1.67;;;;;;;;5041457;28;9352;-77
2022/05/24 06:08:43;;;;;;;;;2.33;2.00;;;;;;;;5040061;28;9309;-79
2022/05/24 06:11:11;;;;;;;;;1.00;1.00;;;;;;;;5038502;28;10003;-77
2022/05/24 06:13:38;;;;;;;;;1.00;1.00;;;;;;;;5037858;28;10025;-74
2022/05/24 06:16:06;;;;;;;;;2.00;2.00;;;;;;;;5034402;28;9380;-75
2022/05/24 06:18:33;;;;;;;;;1.00;1.00;;;;;;;;5041267;28;9096;-74
2022/05/24 06:21:02;;;;;;;;;1.00;1.00;;;;;;;;5034599;28;9308;-74
2022/05/24 06:23:29;;;;;;;;;1.00;1.00;;;;;;;;5042564;28;9119;-74
2022/05/24 06:25:56;;;;;;;;;0.33;0.33;;;;;;;;5037607;28;9073;-74
2022/05/24 06:28:23;;;;;;;;;0.00;0.00;;;;;;;;5038597;28;9044;-75
2022/05/24 06:30:50;;;;;;;;;1.33;1.33;;;;;;;;5035763;28;9166;-73
2022/05/24 06:33:18;;;;;;;;;1.00;1.00;;;;;;;;5033596;28;9118;-73
2022/05/24 06:35:46;;;;;;;;;1.33;0.33;;;;;;;;5030914;28;8957;-73
2022/05/24 06:38:15;;;;;;;;;4.00;1.00;;;;;;;;5028333;28;9133;-72
2022/05/24 06:40:43;;;;;;;;;1.33;1.00;;;;;;;;5036455;28;9445;-73
2022/05/24 06:43:10;;;;;;;;;1.00;1.00;;;;;;;;5038825;28;8959;-76
2022/05/24 06:45:37;;;;;;;;;1.33;1.33;;;;;;;;5038343;28;9224;-75
2022/05/24 06:48:09;;;;;;;;;2.00;2.00;;;;;;;;5038844;28;9064;-74
2022/05/24 06:50:36;;;;;;;;;1.00;1.00;;;;;;;;5038577;28;9237;-76
2022/05/24 06:53:04;;;;;;;;;1.00;1.00;;;;;;;;5035607;28;9219;-76
2022/05/24 06:55:32;;;;;;;;;1.00;1.00;;;;;;;;5038647;28;9451;-75
2022/05/24 06:57:59;;;;;;;;;1.00;1.00;;;;;;;;5038138;28;8962;-76
2022/05/24 07:03:20;;;;;;;;;0.00;0.00;;;;;;;;5008822;28;8898;-74
2022/05/24 07:05:47;;;;;;;;;0.00;0.00;;;;;;;;5036307;28;9132;-74
2022/05/24 07:08:14;;;;;;;;;0.00;0.00;;;;;;;;5032153;28;8901;-74
2022/05/24 07:10:44;;;;;;;;;0.00;0.00;;;;;;;;5032257;28;9640;-74
2022/05/24 07:13:13;;;;;;;;;0.00;0.00;;;;;;;;5035902;28;8863;-74
2022/05/24 07:15:41;;;;;;;;;1.00;1.00;;;;;;;;5030554;28;9015;-74
2022/05/24 07:18:08;;;;;;;;;1.00;1.00;;;;;;;;5031705;28;9114;-75
2022/05/24 07:20:36;;;;;;;;;0.50;0.50;;;;;;;;5036077;28;8984;-75
2022/05/24 07:23:10;;;;;;;;;0.75;0.50;;;;;;;;5033564;28;8890;-74
2022/05/24 07:25:37;;;;;;;;;2.00;1.00;;;;;;;;5036332;28;8877;-74
2022/05/24 07:28:07;;;;;;;;;4.00;1.00;;;;;;;;5040231;28;9475;-74
2022/05/24 07:30:35;;;;;;;;;1.00;1.00;;;;;;;;5031161;28;8817;-74
2022/05/24 07:33:02;;;;;;;;;1.25;1.25;;;;;;;;5031906;28;8891;-76
2022/05/24 07:35:30;;;;;;;;;1.50;1.50;;;;;;;;5039235;28;8878;-74
2022/05/24 07:37:57;;;;;;;;;0.00;0.00;;;;;;;;5036168;28;9001;-73
2022/05/24 07:45:59;;;;;;;;;1.50;1.50;;;;;;;;5033710;28;9393;-73
2022/05/24 07:48:26;;;;;;;;;1.00;1.00;;;;;;;;5022391;28;8871;-71
2022/05/24 07:50:55;;;;;;;;;1.00;1.00;;;;;;;;5030026;28;8984;-73
2022/05/24 07:53:22;;;;;;;;;0.75;0.75;;;;;;;;5034116;28;9352;-74
2022/05/24 07:55:49;;;;;;;;;2.00;1.00;;;;;;;;5029495;28;8855;-74
2022/05/24 07:58:18;;;;;;;;;1.25;1.25;;;;;;;;5035124;28;8889;-74
2022/05/24 08:00:46;;;;;;;;;1.00;1.00;;;;;;;;5031963;28;9239;-73
2022/05/24 08:03:14;;;;;;;;;1.00;1.00;;;;;;;;5028870;28;8863;-74
2022/05/24 08:05:42;;;;;;;;;0.00;0.00;;;;;;;;5035840;28;8847;-73
2022/05/24 08:08:10;;;;;;;;;0.00;0.00;;;;;;;;5031856;28;8883;-74
2022/05/24 08:10:39;;;;;;;;;1.00;1.00;;;;;;;;5038857;28;8906;-74
2022/05/24 08:13:09;;;;;;;;;1.25;1.25;;;;;;;;5039620;28;8875;-75
2022/05/24 08:15:38;;;;;;;;;1.00;1.00;;;;;;;;5038378;28;8881;-74
2022/05/24 08:18:06;;;;;;;;;1.00;1.00;;;;;;;;5038549;28;8893;-74
2022/05/24 08:20:34;;;;;;;;;0.25;0.25;;;;;;;;5035004;28;8885;-74
2022/05/24 08:23:02;;;;;;;;;0.25;0.25;;;;;;;;5037477;28;8889;-74
2022/05/24 08:25:30;;;;;;;;;3.00;1.50;;;;;;;;5036510;28;8890;-75
2022/05/24 08:27:58;;;;;;;;;0.50;0.50;;;;;;;;5037922;28;9645;-74
2022/05/24 08:30:26;;;;;;;;;0.25;0.25;;;;;;;;5037451;28;8799;-74
2022/05/24 08:32:56;;;;;;;;;0.25;0.25;;;;;;;;5037520;28;8867;-74
2022/05/24 08:35:24;;;;;;;;;1.00;1.00;;;;;;;;5037029;28;8883;-75
2022/05/24 08:37:51;;;;;;;;;0.50;0.50;;;;;;;;5038048;28;8871;-75
2022/05/24 08:40:22;;;;;;;;;1.00;1.00;;;;;;;;5039428;28;8870;-74
2022/05/24 08:43:08;;;;;;;;;0.50;0.50;;;;;;;;5039782;28;8936;-74
2022/05/24 08:48:32;;;;;;;;;1.00;1.00;;;;;;;;5034452;28;8834;-74
2022/05/24 08:51:04;;;;;;;;;1.00;1.00;;;;;;;;5037657;28;8956;-74
2022/05/24 08:53:37;;;;;;;;;3.25;1.00;;;;;;;;5032829;28;8878;-75
2022/05/24 08:56:07;;;;;;;;;0.50;0.50;;;;;;;;5040027;28;8891;-75
2022/05/24 08:58:37;;;;;;;;;1.00;1.00;;;;;;;;5032487;28;8956;-74
2022/05/24 09:01:06;;;;;;;;;1.00;1.00;;;;;;;;5039213;28;8866;-74
2022/05/24 09:03:35;;;;;;;;;1.00;1.00;;;;;;;;5035948;28;8884;-75
2022/05/24 09:06:08;;;;;;;;;0.00;0.00;;;;;;;;5033544;28;8895;-74
2022/05/24 09:08:43;;;;;;;;;1.75;1.00;;;;;;;;5040361;28;8867;-75
2022/05/24 09:11:14;;;;;;;;;1.00;1.00;;;;;;;;5038039;28;8959;-75
2022/05/24 09:14:09;;;;;;;;;0.00;0.00;;;;;;;;5031869;28;8883;-75
2022/05/24 09:16:41;;;;;;;;;1.00;1.00;;;;;;;;5022123;28;10711;-74
2022/05/24 09:19:17;;;;;;;;;1.00;1.00;;;;;;;;5036257;28;8917;-75
2022/05/24 09:21:47;;;;;;;;;0.75;0.75;;;;;;;;5034786;28;8886;-74
2022/05/24 09:24:21;;;;;;;;;1.00;1.00;;;;;;;;5035343;28;8867;-75
2022/05/24 09:27:06;;;;;;;;;1.00;1.00;;;;;;;;5037022;28;8875;-75
2022/05/24 09:29:33;;;;;;;;;0.00;0.00;;;;;;;;5037040;28;8847;-75
2022/05/24 09:32:07;;;;;;;;;2.25;2.25;;;;;;;;5037121;28;8834;-75
2022/05/24 09:34:37;;;;;;;;;1.00;1.00;;;;;;;;5034654;28;9613;-75
2022/05/24 09:37:09;;;;;;;;;1.00;1.00;;;;;;;;5032248;28;8883;-74
2022/05/24 09:39:39;;;;;;;;;1.00;1.00;;;;;;;;5038032;28;8951;-74
2022/05/24 09:42:10;;;;;;;;;2.00;2.00;;;;;;;;5034567;28;8859;-75
2022/05/24 09:44:47;;;;;;;;;0.00;0.00;;;;;;;;5037965;28;8893;-75
2022/05/24 09:47:25;;;;;;;;;1.00;1.00;;;;;;;;5039212;28;8875;-75
2022/05/24 09:49:54;;;;;;;;;2.00;0.00;;;;;;;;5034198;28;9017;-75
2022/05/24 09:52:22;;;;;;;;;0.75;0.75;;;;;;;;5039447;28;8883;-75
2022/05/24 09:54:54;;;;;;;;;1.00;0.75;;;;;;;;5032493;28;8883;-75
2022/05/24 09:57:24;;;;;;;;;2.00;0.00;;;;;;;;5038405;28;8866;-75
2022/05/24 10:00:04;;;;;;;;;1.00;1.00;;;;;;;;5038201;28;8847;-75
2022/05/24 10:02:34;;;;;;;;;0.00;0.00;;;;;;;;5031593;28;8863;-75
2022/05/24 10:05:03;;;;;;;;;0.00;0.00;;;;;;;;5032653;28;8898;-75
2022/05/24 10:07:32;;;;;;;;;0.25;0.25;;;;;;;;5034386;28;8875;-75
2022/05/24 10:10:05;;;;;;;;;0.75;0.75;;;;;;;;5040193;28;8902;-74
2022/05/24 10:12:54;;;;;;;;;0.75;0.75;;;;;;;;5041914;28;8883;-74
2022/05/24 10:15:28;;;;;;;;;0.50;0.50;;;;;;;;5039562;28;8858;-74
2022/05/24 10:18:15;;;;;;;;;0.00;0.00;;;;;;;;5042323;28;8867;-74
2022/05/24 10:20:51;;;;;;;;;0.00;0.00;;;;;;;;5039774;28;9577;-75
2022/05/24 10:23:29;;;;;;;;;0.00;0.00;;;;;;;;5037828;28;8898;-75
2022/05/24 10:26:03;;;;;;;;;0.25;0.25;;;;;;;;5041032;28;8867;-75
2022/05/24 10:28:37;;;;;;;;;1.75;0.25;;;;;;;;5042067;28;9027;-74
2022/05/24 10:31:10;;;;;;;;;0.00;0.00;;;;;;;;5039680;28;8819;-74
2022/05/24 10:39:39;;;;;;;;;2.00;0.00;;;;;;;;5036705;28;8835;-75
2022/05/24 10:42:18;;;;;;;;;0.00;0.00;;;;;;;;5037889;28;8959;-75
2022/05/24 10:44:47;;;;;;;;;0.25;0.25;;;;;;;;5040323;28;8875;-74
2022/05/24 10:47:24;;;;;;;;;2.00;0.00;;;;;;;;5038250;28;8894;-74
2022/05/24 10:49:56;;;;;;;;;0.00;0.00;;;;;;;;5040369;28;8874;-74
2022/05/24 10:52:33;;;;;;;;;0.00;0.00;;;;;;;;5039092;28;9644;-75
2022/05/24 10:55:04;;;;;;;;;0.00;0.00;;;;;;;;5036422;28;8863;-75
2022/05/24 10:57:35;;;;;;;;;0.00;0.00;;;;;;;;5040205;28;8881;-75
2022/05/24 11:00:05;;;;;;;;;0.50;0.50;;;;;;;;5041188;28;9005;-74
2022/05/24 11:02:38;;;;;;;;;0.00;0.00;;;;;;;;5039362;28;8869;-74
2022/05/24 11:05:11;;;;;;;;;0.00;0.00;;;;;;;;5041658;28;8862;-75
2022/05/24 11:07:40;;;;;;;;;1.25;1.00;;;;;;;;5038303;28;8896;-75
2022/05/24 11:10:19;;;;;;;;;0.25;0.25;;;;;;;;5039379;28;8875;-75
2022/05/24 11:12:48;;;;;;;;;2.75;1.00;;;;;;;;5034389;28;8951;-78
2022/05/24 11:15:22;;;;;;;;;1.00;1.00;;;;;;;;5030648;28;8871;-76
2022/05/24 11:17:49;;;;;;;;;1.00;0.00;;;;;;;;5028977;28;8909;-76
2022/05/24 11:20:23;;;;;;;;;0.00;0.00;;;;;;;;5035488;28;8984;-78
2022/05/24 11:23:03;;;;;;;;;0.50;0.50;;;;;;;;5038835;28;8871;-76
2022/05/24 11:25:34;;;;;;;;;0.00;0.00;;;;;;;;5029997;28;8877;-76
2022/05/24 11:28:18;;;;;;;;;1.00;1.00;;;;;;;;5039663;28;8891;-75
2022/05/24 11:30:46;;;;;;;;;0.25;0.25;;;;;;;;5033699;28;8834;-77
2022/05/24 11:33:15;;;;;;;;;0.00;0.00;;;;;;;;5035679;28;8909;-75
2022/05/24 11:35:45;;;;;;;;;0.00;0.00;;;;;;;;5035346;28;8857;-79
2022/05/24 11:38:18;;;;;;;;;0.20;0.20;;;;;;;;5032602;28;8845;-75
2022/05/24 11:41:01;;;;;;;;;0.00;0.00;;;;;;;;5027763;28;8905;-79
2022/05/24 11:44:04;;;;;;;;;0.00;0.00;;;;;;;;5034751;28;8899;-76
2022/05/24 11:46:41;;;;;;;;;0.00;0.00;;;;;;;;5035498;28;8898;-75
2022/05/24 11:49:11;;;;;;;;;1.60;0.00;;;;;;;;5036932;28;8881;-74
2022/05/24 11:51:41;;;;;;;;;0.20;0.00;;;;;;;;5036104;28;8895;-74
2022/05/24 11:54:50;;;;;;;;;0.00;0.00;;;;;;;;5037212;28;8867;-76
2022/05/24 11:57:27;;;;;;;;;2.00;0.00;;;;;;;;5018279;28;8855;-75
2022/05/24 11:59:55;;;;;;;;;0.00;0.00;;;;;;;;5033778;28;8874;-75
2022/05/24 12:08:28;;;;;;;;;0.00;0.00;;;;;;;;5032469;28;8871;-76
2022/05/24 12:11:18;;;;;;;;;0.00;0.00;;;;;;;;5032223;28;8895;-76
2022/05/24 12:14:05;;;;;;;;;0.80;0.00;;;;;;;;5028040;28;8882;-74
2022/05/24 12:16:35;;;;;;;;;0.00;0.00;;;;;;;;5028410;28;8884;-76
2022/05/24 12:19:04;;;;;;;;;1.20;0.00;;;;;;;;5033345;28;9990;-76
2022/05/24 12:22:02;;;;;;;;;0.00;0.00;;;;;;;;5036393;28;8897;-74
2022/05/24 12:24:49;;;;;;;;;0.00;0.00;;;;;;;;5019247;28;8878;-76
2022/05/24 12:27:52;;;;;;;;;0.00;0.00;;;;;;;;5028923;28;8890;-76
2022/05/24 12:30:27;;;;;;;;;0.00;0.00;;;;;;;;5031188;28;8875;-76
2022/05/24 12:32:56;;;;;;;;;2.00;0.00;;;;;;;;5030415;28;8870;-74
2022/05/24 12:35:24;;;;;;;;;0.00;0.00;;;;;;;;5028380;28;8874;-73
2022/05/24 12:37:53;;;;;;;;;0.00;0.00;;;;;;;;5038363;28;8875;-73
2022/05/24 12:40:23;;;;;;;;;0.00;0.00;;;;;;;;5034921;28;8918;-74
2022/05/24 12:42:51;;;;;;;;;0.80;0.00;;;;;;;;5034794;28;9672;-71
2022/05/24 12:45:30;;;;;;;;;0.00;0.00;;;;;;;;5037343;28;8867;-74
2022/05/24 12:47:58;;;;;;;;;0.00;0.00;;;;;;;;5036517;28;8900;-74
2022/05/24 12:50:37;;;;;;;;;0.00;0.00;;;;;;;;5030711;28;8932;-74
2022/05/24 12:53:08;;;;;;;;;0.00;0.00;;;;;;;;5030024;28;8873;-75
2022/05/24 12:58:30;;;;;;;;;0.00;0.00;;;;;;;;5036674;28;8887;-74
2022/05/24 13:01:18;;;;;;;;;0.00;0.00;;;;;;;;5035387;28;8819;-74
2022/05/24 13:03:54;;;;;;;;;0.00;0.00;;;;;;;;5033255;28;8874;-75
2022/05/24 13:06:23;;;;;;;;;0.00;0.00;;;;;;;;5031335;28;8878;-75
2022/05/24 13:09:23;;;;;;;;;0.00;0.00;;;;;;;;5031742;28;8902;-74
2022/05/24 13:11:53;;;;;;;;;0.00;0.00;;;;;;;;5031626;28;9084;-73
2022/05/24 13:14:46;;;;;;;;;0.00;0.00;;;;;;;;5019517;28;8894;-75
2022/05/24 13:17:18;;;;;;;;;0.00;0.00;;;;;;;;5025182;28;8919;-73
2022/05/24 13:19:50;;;;;;;;;0.00;0.00;;;;;;;;5034342;28;8875;-72
2022/05/24 13:22:18;;;;;;;;;0.00;0.00;;;;;;;;5024945;28;8870;-72
2022/05/24 13:24:54;;;;;;;;;0.00;0.00;;;;;;;;5029960;28;8897;-73
2022/05/24 13:27:22;;;;;;;;;0.00;0.00;;;;;;;;5028475;28;8867;-73
2022/05/24 13:35:32;;;;;;;;;0.00;0.00;;;;;;;;5029396;28;8831;-73
2022/05/24 13:38:01;;;;;;;;;0.00;0.00;;;;;;;;5026760;28;9737;-76
2022/05/24 13:40:40;;;;;;;;;0.00;0.00;;;;;;;;5026869;28;8898;-73
2022/05/24 13:43:08;;;;;;;;;0.00;0.00;;;;;;;;5028647;28;9757;-73
2022/05/24 13:45:39;;;;;;;;;0.75;0.75;;;;;;;;5022660;28;8914;-72
2022/05/24 13:48:28;;;;;;;;;1.25;0.00;;;;;;;;5034620;28;8891;-72
2022/05/24 13:51:05;;;;;;;;;0.00;0.00;;;;;;;;5033583;28;8851;-73
2022/05/24 13:53:36;;;;;;;;;0.00;0.00;;;;;;;;5031455;28;8944;-72
2022/05/24 13:56:06;;;;;;;;;1.75;0.00;;;;;;;;5038975;28;8882;-73
2022/05/24 13:58:36;;;;;;;;;0.00;0.00;;;;;;;;5035829;28;8864;-73
2022/05/24 14:01:06;;;;;;;;;0.00;0.00;;;;;;;;5019258;28;8828;-74
2022/05/24 14:03:48;;;;;;;;;0.00;0.00;;;;;;;;5031257;28;8885;-73
2022/05/24 14:06:20;;;;;;;;;0.00;0.00;;;;;;;;5032734;28;8889;-74
2022/05/24 14:08:50;;;;;;;;;0.00;0.00;;;;;;;;5032320;28;8839;-75
2022/05/24 14:11:18;;;;;;;;;0.00;0.00;;;;;;;;5037475;28;8887;-75
2022/05/24 14:13:47;;;;;;;;;0.00;0.00;;;;;;;;5035228;28;8874;-74
2022/05/24 14:16:16;;;;;;;;;0.00;0.00;;;;;;;;5037355;28;8875;-74
2022/05/24 14:18:45;;;;;;;;;0.00;0.00;;;;;;;;5041650;28;8886;-75
2022/05/24 14:21:13;;;;;;;;;1.00;1.00;;;;;;;;5042423;28;8881;-74
2022/05/24 14:23:41;;;;;;;;;0.00;0.00;;;;;;;;5036398;28;9013;-74
2022/05/24 14:26:08;;;;;;;;;1.50;0.00;;;;;;;;5042769;28;9009;-74
2022/05/24 14:28:36;;;;;;;;;0.00;0.00;;;;;;;;5032017;28;8863;-74
2022/05/24 14:31:05;;;;;;;;;0.00;0.00;;;;;;;;5035242;28;8796;-75
2022/05/24 14:33:34;;;;;;;;;0.00;0.00;;;;;;;;5037670;28;8912;-75
2022/05/24 14:36:03;;;;;;;;;0.00;0.00;;;;;;;;5040025;28;8898;-76
2022/05/24 14:38:31;;;;;;;;;0.00;0.00;;;;;;;;5041552;28;8867;-75
2022/05/24 14:41:16;;;;;;;;;0.00;0.00;;;;;;;;5037248;28;9667;-75
2022/05/24 14:43:45;;;;;;;;;0.50;0.50;;;;;;;;5040516;28;8851;-76
2022/05/24 14:46:12;;;;;;;;;0.00;0.00;;;;;;;;5040596;28;8863;-75
2022/05/24 14:48:40;;;;;;;;;1.25;0.00;;;;;;;;5042210;28;8958;-75
2022/05/24 14:51:10;;;;;;;;;0.00;0.00;;;;;;;;5038586;28;8886;-74
2022/05/24 14:53:38;;;;;;;;;2.25;0.00;;;;;;;;5040239;28;8879;-76
2022/05/24 14:56:06;;;;;;;;;0.75;0.00;;;;;;;;5039670;28;8855;-76
2022/05/24 14:58:34;;;;;;;;;0.00;0.00;;;;;;;;5038508;28;8889;-75
2022/05/24 15:01:01;;;;;;;;;0.00;0.00;;;;;;;;5038041;28;8843;-75
2022/05/24 15:03:29;;;;;;;;;0.00;0.00;;;;;;;;5039921;28;8890;-75
2022/05/24 15:05:56;;;;;;;;;0.00;0.00;;;;;;;;5037820;28;8870;-75
2022/05/24 15:16:41;;;;;;;;;0.00;0.00;;;;;;;;5034576;28;8966;-75
2022/05/24 15:19:08;;;;;;;;;1.00;0.00;;;;;;;;5039634;28;8924;-75
2022/05/24 15:21:38;;;;;;;;;0.00;0.00;;;;;;;;5029259;28;8900;-75
2022/05/24 15:24:11;;;;;;;;;0.00;0.00;;;;;;;;5041113;28;8890;-74
2022/05/24 15:26:43;;;;;;;;;0.75;0.00;;;;;;;;5039576;28;9676;-75
2022/05/24 15:29:11;;;;;;;;;0.00;0.00;;;;;;;;5033059;28;8878;-76
2022/05/24 15:31:39;;;;;;;;;0.00;0.00;;;;;;;;5036011;28;8838;-74
2022/05/24 15:34:06;;;;;;;;;0.40;0.00;;;;;;;;5038198;28;8898;-74
2022/05/24 15:36:33;;;;;;;;;0.00;0.00;;;;;;;;5037850;28;8960;-74
2022/05/24 15:39:01;;;;;;;;;0.00;0.00;;;;;;;;5037530;28;8963;-75
2022/05/24 15:41:32;;;;;;;;;0.00;0.00;;;;;;;;5036974;28;8885;-74
2022/05/24 15:44:00;;;;;;;;;0.00;0.00;;;;;;;;5037484;28;8879;-75
2022/05/24 15:46:28;;;;;;;;;0.00;0.00;;;;;;;;5036677;28;8904;-74
2022/05/24 15:48:56;;;;;;;;;0.00;0.00;;;;;;;;5038656;28;8879;-74
2022/05/24 15:51:25;;;;;;;;;0.40;0.00;;;;;;;;5038198;28;8960;-74
2022/05/24 15:53:52;;;;;;;;;0.00;0.00;;;;;;;;5036304;28;8863;-74
2022/05/24 15:56:20;;;;;;;;;0.00;0.00;;;;;;;;5040743;28;8882;-73
2022/05/24 15:58:49;;;;;;;;;0.00;0.00;;;;;;;;5038131;28;9641;-74
2022/05/24 16:01:17;;;;;;;;;1.00;0.00;;;;;;;;5038129;28;8802;-74
2022/05/24 16:03:46;;;;;;;;;0.00;0.00;;;;;;;;5034576;28;8874;-74
2022/05/24 16:11:48;;;;;;;;;0.00;0.00;;;;;;;;5035108;28;8839;-75
2022/05/24 16:14:20;;;;;;;;;0.00;0.00;;;;;;;;5038667;28;9005;-75
2022/05/24 16:16:48;;;;;;;;;0.00;0.00;;;;;;;;5037005;28;8905;-78
2022/05/24 16:19:15;;;;;;;;;0.00;0.00;;;;;;;;5038144;28;8976;-76
2022/05/24 16:21:43;;;;;;;;;0.00;0.00;;;;;;;;5038382;28;8978;-73
2022/05/24 16:24:11;;;;;;;;;0.00;0.00;;;;;;;;5036806;28;8875;-76